FQVL

Vilankulo Airport

Vilanculo, Mozambique
METAR FQVL 181400Z 07008KT 9999 FEW020 26/22 Q1020
Observed Flight Rules
Aug-18 @ 14:00 UTC (51 minutes ago) Visual Flight Rules
Wind Visibility Clouds
70° at 8 knots 10,000+ meters
  • Few at 2,000' AGL
Temperatures Readings
Current 26°C / 79°F
Dewpoint 22°C / 72°F
Humidity 79%
Altimeter 30.12" Hg
Pressure 1020 hPa
Elevation 21
METAR FQVL 181400Z 07008KT 9999 FEW020 26/22 Q1020
Observed Flight Rules
Aug-18 @ 14:00 UTC
(51 minutes ago)
VFR
Wind Visibility
70° at 8 knots 10,000+ meters
Clouds
  • Few at 2,000' AGL
Temperature Dewpoint
26°C / 79°F 22°C / 72°F
Humidity Altimeter Pressure
79% 30.12" Hg 1020 hPa